sensor_id;sensor_type;location;lat;lon;timestamp;pressure;altitude;pressure_sealevel;temperature;humidity
28027;BME280;15344;52.342;-1.290;2022-12-11T00:00:32;99505.53;;;6.14;73.79
28027;BME280;15344;52.342;-1.290;2022-12-11T00:02:48;99510.32;;;5.47;74.49
28027;BME280;15344;52.342;-1.290;2022-12-11T00:05:13;99514.17;;;5.83;75.08
28027;BME280;15344;52.342;-1.290;2022-12-11T00:07:39;99522.98;;;5.91;72.86
28027;BME280;15344;52.342;-1.290;2022-12-11T00:10:06;99523.76;;;5.71;74.24
28027;BME280;15344;52.342;-1.290;2022-12-11T00:12:30;99526.00;;;5.67;74.63
28027;BME280;15344;52.342;-1.290;2022-12-11T00:14:55;99524.76;;;5.95;73.10
28027;BME280;15344;52.342;-1.290;2022-12-11T00:17:21;99522.97;;;6.16;72.21
28027;BME280;15344;52.342;-1.290;2022-12-11T00:19:46;99525.14;;;6.02;70.95
28027;BME280;15344;52.342;-1.290;2022-12-11T00:22:12;99530.34;;;6.32;73.24
28027;BME280;15344;52.342;-1.290;2022-12-11T00:24:37;99529.48;;;5.74;73.81
28027;BME280;15344;52.342;-1.290;2022-12-11T00:27:03;99523.76;;;5.98;72.86
28027;BME280;15344;52.342;-1.290;2022-12-11T00:29:29;99522.90;;;5.71;74.01
28027;BME280;15344;52.342;-1.290;2022-12-11T00:31:54;99516.43;;;5.65;73.97
28027;BME280;15344;52.342;-1.290;2022-12-11T00:34:20;99511.36;;;5.96;73.35
28027;BME280;15344;52.342;-1.290;2022-12-11T00:36:46;99511.93;;;6.09;73.06
28027;BME280;15344;52.342;-1.290;2022-12-11T00:39:11;99508.58;;;5.95;73.30
28027;BME280;15344;52.342;-1.290;2022-12-11T00:41:36;99505.94;;;5.64;73.09
28027;BME280;15344;52.342;-1.290;2022-12-11T00:44:03;99504.72;;;5.64;74.71
28027;BME280;15344;52.342;-1.290;2022-12-11T00:46:27;99505.16;;;5.68;74.33
28027;BME280;15344;52.342;-1.290;2022-12-11T00:48:53;99502.24;;;5.17;75.56
28027;BME280;15344;52.342;-1.290;2022-12-11T00:51:18;99495.24;;;5.46;75.56
28027;BME280;15344;52.342;-1.290;2022-12-11T00:53:44;99497.24;;;5.00;76.81
28027;BME280;15344;52.342;-1.290;2022-12-11T00:56:12;99495.19;;;5.33;75.27
28027;BME280;15344;52.342;-1.290;2022-12-11T00:58:35;99495.33;;;5.62;74.38
28027;BME280;15344;52.342;-1.290;2022-12-11T01:01:05;99490.60;;;6.44;72.14
28027;BME280;15344;52.342;-1.290;2022-12-11T01:03:26;99492.11;;;6.05;73.31
28027;BME280;15344;52.342;-1.290;2022-12-11T01:05:52;99494.23;;;5.59;74.99
28027;BME280;15344;52.342;-1.290;2022-12-11T01:08:16;99497.34;;;5.25;76.03
28027;BME280;15344;52.342;-1.290;2022-12-11T01:10:41;99491.21;;;5.64;74.83
28027;BME280;15344;52.342;-1.290;2022-12-11T01:13:07;99492.27;;;5.79;71.78
28027;BME280;15344;52.342;-1.290;2022-12-11T01:15:36;99494.37;;;6.33;70.60
28027;BME280;15344;52.342;-1.290;2022-12-11T01:17:58;99500.08;;;5.44;75.46
28027;BME280;15344;52.342;-1.290;2022-12-11T01:20:24;99496.41;;;5.96;73.06
28027;BME280;15344;52.342;-1.290;2022-12-11T01:22:51;99503.38;;;4.74;74.66
28027;BME280;15344;52.342;-1.290;2022-12-11T01:25:15;99501.51;;;5.74;72.15
28027;BME280;15344;52.342;-1.290;2022-12-11T01:27:40;99500.24;;;5.31;73.49
28027;BME280;15344;52.342;-1.290;2022-12-11T01:30:07;99499.07;;;5.39;74.13
28027;BME280;15344;52.342;-1.290;2022-12-11T01:32:31;99495.38;;;5.50;75.18
28027;BME280;15344;52.342;-1.290;2022-12-11T01:34:57;99495.65;;;5.51;74.69
28027;BME280;15344;52.342;-1.290;2022-12-11T01:37:22;99499.09;;;5.65;73.81
28027;BME280;15344;52.342;-1.290;2022-12-11T01:39:47;99494.03;;;5.77;73.62
28027;BME280;15344;52.342;-1.290;2022-12-11T01:42:16;99490.30;;;6.26;71.54
28027;BME280;15344;52.342;-1.290;2022-12-11T01:47:04;99481.43;;;6.40;68.45
28027;BME280;15344;52.342;-1.290;2022-12-11T01:49:30;99480.05;;;6.50;69.02
28027;BME280;15344;52.342;-1.290;2022-12-11T01:51:59;99480.67;;;6.57;68.36
28027;BME280;15344;52.342;-1.290;2022-12-11T01:54:23;99480.90;;;6.46;68.93
28027;BME280;15344;52.342;-1.290;2022-12-11T01:56:47;99491.46;;;6.17;71.16
28027;BME280;15344;52.342;-1.290;2022-12-11T01:59:14;99495.43;;;6.65;68.95
28027;BME280;15344;52.342;-1.290;2022-12-11T02:01:39;99494.56;;;6.14;70.71
28027;BME280;15344;52.342;-1.290;2022-12-11T02:04:03;99484.14;;;6.58;69.31
28027;BME280;15344;52.342;-1.290;2022-12-11T02:06:32;99479.79;;;6.99;67.96
28027;BME280;15344;52.342;-1.290;2022-12-11T02:08:53;99479.94;;;6.53;68.11
28027;BME280;15344;52.342;-1.290;2022-12-11T02:11:20;99479.73;;;6.44;69.39
28027;BME280;15344;52.342;-1.290;2022-12-11T02:13:48;99470.68;;;5.82;71.49
28027;BME280;15344;52.342;-1.290;2022-12-11T02:16:15;99469.59;;;6.28;71.22
28027;BME280;15344;52.342;-1.290;2022-12-11T02:18:39;99471.37;;;6.49;71.54
28027;BME280;15344;52.342;-1.290;2022-12-11T02:21:05;99473.32;;;6.21;71.02
28027;BME280;15344;52.342;-1.290;2022-12-11T02:23:37;99471.18;;;6.30;71.29
28027;BME280;15344;52.342;-1.290;2022-12-11T02:25:59;99463.20;;;5.58;72.70
28027;BME280;15344;52.342;-1.290;2022-12-11T02:28:21;99471.25;;;6.32;69.38
28027;BME280;15344;52.342;-1.290;2022-12-11T02:30:48;99474.29;;;6.37;68.58
28027;BME280;15344;52.342;-1.290;2022-12-11T02:33:10;99469.14;;;5.73;70.21
28027;BME280;15344;52.342;-1.290;2022-12-11T02:35:37;99468.90;;;5.74;69.96
28027;BME280;15344;52.342;-1.290;2022-12-11T02:38:03;99474.66;;;5.14;71.55
28027;BME280;15344;52.342;-1.290;2022-12-11T02:40:33;99473.69;;;5.06;73.33
28027;BME280;15344;52.342;-1.290;2022-12-11T02:42:51;99470.84;;;5.51;71.14
28027;BME280;15344;52.342;-1.290;2022-12-11T02:45:17;99471.83;;;5.39;71.58
28027;BME280;15344;52.342;-1.290;2022-12-11T02:47:42;99469.36;;;5.73;70.80
28027;BME280;15344;52.342;-1.290;2022-12-11T02:50:11;99471.93;;;4.50;75.59
28027;BME280;15344;52.342;-1.290;2022-12-11T02:52:33;99468.14;;;5.49;70.85
28027;BME280;15344;52.342;-1.290;2022-12-11T02:54:58;99468.52;;;5.29;72.31
28027;BME280;15344;52.342;-1.290;2022-12-11T02:57:28;99466.28;;;5.56;70.69
28027;BME280;15344;52.342;-1.290;2022-12-11T02:59:48;99466.66;;;5.80;69.95
28027;BME280;15344;52.342;-1.290;2022-12-11T03:02:15;99466.19;;;5.46;71.38
28027;BME280;15344;52.342;-1.290;2022-12-11T03:04:40;99467.34;;;5.41;71.93
28027;BME280;15344;52.342;-1.290;2022-12-11T03:07:08;99467.71;;;4.90;73.12
28027;BME280;15344;52.342;-1.290;2022-12-11T03:09:31;99460.05;;;5.04;73.69
28027;BME280;15344;52.342;-1.290;2022-12-11T03:11:56;99455.60;;;6.50;69.18
28027;BME280;15344;52.342;-1.290;2022-12-11T03:14:22;99450.11;;;6.22;68.57
28027;BME280;15344;52.342;-1.290;2022-12-11T03:16:52;99443.90;;;6.26;68.48
28027;BME280;15344;52.342;-1.290;2022-12-11T03:19:17;99447.87;;;6.84;67.35
28027;BME280;15344;52.342;-1.290;2022-12-11T03:21:45;99447.17;;;5.76;69.85
28027;BME280;15344;52.342;-1.290;2022-12-11T03:24:08;99446.47;;;4.65;73.66
28027;BME280;15344;52.342;-1.290;2022-12-11T03:26:33;99436.41;;;5.91;72.40
28027;BME280;15344;52.342;-1.290;2022-12-11T03:28:59;99442.71;;;6.37;70.49
28027;BME280;15344;52.342;-1.290;2022-12-11T03:31:26;99436.80;;;5.58;71.74
28027;BME280;15344;52.342;-1.290;2022-12-11T03:33:47;99444.96;;;4.87;75.26
28027;BME280;15344;52.342;-1.290;2022-12-11T03:36:15;99446.05;;;4.90;75.29
28027;BME280;15344;52.342;-1.290;2022-12-11T03:38:43;99439.01;;;5.33;74.71
28027;BME280;15344;52.342;-1.290;2022-12-11T03:41:04;99429.38;;;5.25;74.71
28027;BME280;15344;52.342;-1.290;2022-12-11T03:43:29;99435.78;;;5.08;74.35
28027;BME280;15344;52.342;-1.290;2022-12-11T03:45:54;99437.12;;;5.14;74.41
28027;BME280;15344;52.342;-1.290;2022-12-11T03:48:20;99435.57;;;5.45;74.85
28027;BME280;15344;52.342;-1.290;2022-12-11T03:50:45;99428.39;;;5.68;72.22
28027;BME280;15344;52.342;-1.290;2022-12-11T03:53:10;99427.02;;;5.94;70.95
28027;BME280;15344;52.342;-1.290;2022-12-11T03:55:37;99427.29;;;5.83;71.73
28027;BME280;15344;52.342;-1.290;2022-12-11T03:58:02;99430.52;;;6.26;70.55
28027;BME280;15344;52.342;-1.290;2022-12-11T04:00:26;99431.47;;;6.00;70.59
28027;BME280;15344;52.342;-1.290;2022-12-11T04:02:52;99424.43;;;6.33;68.10
28027;BME280;15344;52.342;-1.290;2022-12-11T04:05:17;99424.06;;;5.89;69.81
28027;BME280;15344;52.342;-1.290;2022-12-11T04:07:42;99425.34;;;5.76;71.56
28027;BME280;15344;52.342;-1.290;2022-12-11T04:10:08;99420.89;;;5.50;73.68
28027;BME280;15344;52.342;-1.290;2022-12-11T04:12:33;99424.36;;;5.41;72.25
28027;BME280;15344;52.342;-1.290;2022-12-11T04:14:59;99425.52;;;5.79;72.39
28027;BME280;15344;52.342;-1.290;2022-12-11T04:17:23;99429.25;;;6.24;70.27
28027;BME280;15344;52.342;-1.290;2022-12-11T04:19:48;99423.56;;;5.68;72.35
28027;BME280;15344;52.342;-1.290;2022-12-11T04:22:16;99424.54;;;4.59;74.42
28027;BME280;15344;52.342;-1.290;2022-12-11T04:24:40;99416.84;;;5.23;74.67
28027;BME280;15344;52.342;-1.290;2022-12-11T04:27:05;99414.93;;;5.35;74.45
28027;BME280;15344;52.342;-1.290;2022-12-11T04:29:31;99411.70;;;5.24;74.46
28027;BME280;15344;52.342;-1.290;2022-12-11T04:31:57;99413.77;;;4.80;74.95
28027;BME280;15344;52.342;-1.290;2022-12-11T04:34:22;99406.66;;;5.71;73.35
28027;BME280;15344;52.342;-1.290;2022-12-11T04:36:47;99406.28;;;5.59;72.94
28027;BME280;15344;52.342;-1.290;2022-12-11T04:39:13;99402.56;;;6.27;71.56
28027;BME280;15344;52.342;-1.290;2022-12-11T04:41:39;99405.90;;;6.83;69.06
28027;BME280;15344;52.342;-1.290;2022-12-11T04:44:04;99408.59;;;6.88;67.75
28027;BME280;15344;52.342;-1.290;2022-12-11T04:46:29;99409.68;;;6.89;66.82
28027;BME280;15344;52.342;-1.290;2022-12-11T04:48:54;99408.33;;;6.44;69.44
28027;BME280;15344;52.342;-1.290;2022-12-11T04:51:20;99412.24;;;5.58;71.70
28027;BME280;15344;52.342;-1.290;2022-12-11T04:53:45;99412.74;;;5.93;71.17
28027;BME280;15344;52.342;-1.290;2022-12-11T04:56:12;99412.60;;;5.71;72.03
28027;BME280;15344;52.342;-1.290;2022-12-11T04:58:36;99407.58;;;6.31;71.15
28027;BME280;15344;52.342;-1.290;2022-12-11T05:01:06;99407.26;;;6.14;72.49
28027;BME280;15344;52.342;-1.290;2022-12-11T05:03:27;99405.97;;;6.09;70.88
28027;BME280;15344;52.342;-1.290;2022-12-11T05:05:52;99405.51;;;5.96;71.99
28027;BME280;15344;52.342;-1.290;2022-12-11T05:08:18;99402.99;;;5.31;73.66
28027;BME280;15344;52.342;-1.290;2022-12-11T05:10:44;99404.35;;;5.83;72.78
28027;BME280;15344;52.342;-1.290;2022-12-11T05:13:08;99409.39;;;5.58;73.76
28027;BME280;15344;52.342;-1.290;2022-12-11T05:15:34;99409.07;;;6.35;71.47
28027;BME280;15344;52.342;-1.290;2022-12-11T05:18:00;99407.11;;;5.62;72.57
28027;BME280;15344;52.342;-1.290;2022-12-11T05:20:24;99404.23;;;5.50;73.00
28027;BME280;15344;52.342;-1.290;2022-12-11T05:22:50;99402.86;;;5.49;74.22
28027;BME280;15344;52.342;-1.290;2022-12-11T05:25:15;99408.61;;;6.56;70.38
28027;BME280;15344;52.342;-1.290;2022-12-11T05:27:40;99404.40;;;6.83;68.41
28027;BME280;15344;52.342;-1.290;2022-12-11T05:30:07;99405.33;;;6.19;69.90
28027;BME280;15344;52.342;-1.290;2022-12-11T05:32:31;99401.37;;;5.45;72.64
28027;BME280;15344;52.342;-1.290;2022-12-11T05:34:57;99404.39;;;3.82;79.46
28027;BME280;15344;52.342;-1.290;2022-12-11T05:37:23;99402.74;;;4.29;79.02
28027;BME280;15344;52.342;-1.290;2022-12-11T05:39:49;99398.08;;;4.57;76.07
28027;BME280;15344;52.342;-1.290;2022-12-11T05:42:15;99392.32;;;4.64;76.16
28027;BME280;15344;52.342;-1.290;2022-12-11T05:44:39;99391.70;;;4.70;76.90
28027;BME280;15344;52.342;-1.290;2022-12-11T05:47:05;99390.45;;;3.48;80.44
28027;BME280;15344;52.342;-1.290;2022-12-11T05:49:31;99390.71;;;4.13;78.87
28027;BME280;15344;52.342;-1.290;2022-12-11T05:51:56;99393.12;;;4.05;79.59
28027;BME280;15344;52.342;-1.290;2022-12-11T05:54:22;99391.06;;;4.64;77.41
28027;BME280;15344;52.342;-1.290;2022-12-11T05:56:48;99391.32;;;5.28;75.14
28027;BME280;15344;52.342;-1.290;2022-12-11T05:59:12;99385.75;;;5.40;74.73
28027;BME280;15344;52.342;-1.290;2022-12-11T06:01:40;99390.88;;;4.75;76.15
28027;BME280;15344;52.342;-1.290;2022-12-11T06:04:06;99387.54;;;4.04;77.12
28027;BME280;15344;52.342;-1.290;2022-12-11T06:06:29;99394.12;;;4.48;76.71
28027;BME280;15344;52.342;-1.290;2022-12-11T06:08:56;99394.22;;;5.96;71.41
28027;BME280;15344;52.342;-1.290;2022-12-11T06:11:21;99395.21;;;6.53;71.12
28027;BME280;15344;52.342;-1.290;2022-12-11T06:13:45;99396.53;;;6.57;68.58
28027;BME280;15344;52.342;-1.290;2022-12-11T06:16:11;99399.28;;;5.52;71.78
28027;BME280;15344;52.342;-1.290;2022-12-11T06:18:38;99399.75;;;5.00;75.12
28027;BME280;15344;52.342;-1.290;2022-12-11T06:21:11;99406.55;;;4.22;77.56
28027;BME280;15344;52.342;-1.290;2022-12-11T06:23:28;99408.12;;;4.49;77.41
28027;BME280;15344;52.342;-1.290;2022-12-11T06:25:53;99412.06;;;4.12;79.21
28027;BME280;15344;52.342;-1.290;2022-12-11T06:28:18;99413.31;;;4.00;80.19
28027;BME280;15344;52.342;-1.290;2022-12-11T06:30:44;99416.37;;;4.51;77.23
28027;BME280;15344;52.342;-1.290;2022-12-11T06:33:10;99412.52;;;2.98;84.83
28027;BME280;15344;52.342;-1.290;2022-12-11T06:35:34;99409.69;;;3.57;83.99
28027;BME280;15344;52.342;-1.290;2022-12-11T06:38:00;99406.54;;;3.45;82.37
28027;BME280;15344;52.342;-1.290;2022-12-11T06:40:26;99406.01;;;3.52;82.68
28027;BME280;15344;52.342;-1.290;2022-12-11T06:42:53;99407.02;;;4.61;79.42
28027;BME280;15344;52.342;-1.290;2022-12-11T06:45:17;99402.89;;;4.77;78.48
28027;BME280;15344;52.342;-1.290;2022-12-11T06:47:42;99400.83;;;2.31;86.33
28027;BME280;15344;52.342;-1.290;2022-12-11T06:50:08;99400.83;;;2.18;85.88
28027;BME280;15344;52.342;-1.290;2022-12-11T06:52:33;99400.13;;;3.88;81.55
28027;BME280;15344;52.342;-1.290;2022-12-11T06:54:59;99396.49;;;5.16;77.69
28027;BME280;15344;52.342;-1.290;2022-12-11T06:57:24;99393.01;;;5.26;76.44
28027;BME280;15344;52.342;-1.290;2022-12-11T06:59:49;99399.65;;;6.20;74.59
28027;BME280;15344;52.342;-1.290;2022-12-11T07:02:16;99396.19;;;5.57;76.00
28027;BME280;15344;52.342;-1.290;2022-12-11T07:04:45;99395.02;;;5.91;73.69
28027;BME280;15344;52.342;-1.290;2022-12-11T07:07:06;99401.87;;;4.99;77.69
28027;BME280;15344;52.342;-1.290;2022-12-11T07:09:31;99395.09;;;5.86;76.07
28027;BME280;15344;52.342;-1.290;2022-12-11T07:11:56;99393.23;;;5.95;73.81
28027;BME280;15344;52.342;-1.290;2022-12-11T07:14:21;99392.84;;;5.54;73.97
28027;BME280;15344;52.342;-1.290;2022-12-11T07:16:47;99389.88;;;5.47;75.45
28027;BME280;15344;52.342;-1.290;2022-12-11T07:19:12;99391.93;;;5.47;74.11
28027;BME280;15344;52.342;-1.290;2022-12-11T07:21:37;99396.59;;;6.27;72.16
28027;BME280;15344;52.342;-1.290;2022-12-11T07:24:03;99398.31;;;5.55;72.83
28027;BME280;15344;52.342;-1.290;2022-12-11T07:26:29;99402.31;;;4.72;75.04
28027;BME280;15344;52.342;-1.290;2022-12-11T07:28:55;99398.79;;;5.12;75.52
28027;BME280;15344;52.342;-1.290;2022-12-11T07:31:21;99402.39;;;4.50;76.76
28027;BME280;15344;52.342;-1.290;2022-12-11T07:33:45;99399.15;;;5.29;75.34
28027;BME280;15344;52.342;-1.290;2022-12-11T07:36:12;99398.19;;;4.75;76.43
28027;BME280;15344;52.342;-1.290;2022-12-11T07:38:36;99393.80;;;5.34;75.23
28027;BME280;15344;52.342;-1.290;2022-12-11T07:41:02;99400.51;;;5.99;72.96
28027;BME280;15344;52.342;-1.290;2022-12-11T07:43:27;99403.73;;;5.81;74.52
28027;BME280;15344;52.342;-1.290;2022-12-11T07:45:52;99406.76;;;5.06;75.50
28027;BME280;15344;52.342;-1.290;2022-12-11T07:48:17;99412.47;;;5.17;76.29
28027;BME280;15344;52.342;-1.290;2022-12-11T07:50:42;99411.05;;;6.37;69.80
28027;BME280;15344;52.342;-1.290;2022-12-11T07:53:07;99415.50;;;5.44;74.60
28027;BME280;15344;52.342;-1.290;2022-12-11T07:55:33;99414.75;;;5.37;72.59
28027;BME280;15344;52.342;-1.290;2022-12-11T07:57:58;99420.76;;;4.16;77.39
28027;BME280;15344;52.342;-1.290;2022-12-11T08:00:23;99415.42;;;4.35;77.84
28027;BME280;15344;52.342;-1.290;2022-12-11T08:02:49;99405.68;;;5.69;74.09
28027;BME280;15344;52.342;-1.290;2022-12-11T08:05:14;99411.27;;;6.25;72.43
28027;BME280;15344;52.342;-1.290;2022-12-11T08:07:39;99411.92;;;5.37;74.29
28027;BME280;15344;52.342;-1.290;2022-12-11T08:10:06;99416.85;;;5.79;73.42
28027;BME280;15344;52.342;-1.290;2022-12-11T08:12:31;99423.58;;;4.62;76.70
28027;BME280;15344;52.342;-1.290;2022-12-11T08:14:56;99419.15;;;5.71;73.73
28027;BME280;15344;52.342;-1.290;2022-12-11T08:17:22;99417.81;;;5.28;74.39
28027;BME280;15344;52.342;-1.290;2022-12-11T08:19:47;99422.90;;;6.18;73.23
28027;BME280;15344;52.342;-1.290;2022-12-11T08:22:13;99418.26;;;5.94;73.42
28027;BME280;15344;52.342;-1.290;2022-12-11T08:24:38;99422.53;;;6.52;71.24
28027;BME280;15344;52.342;-1.290;2022-12-11T08:27:03;99422.48;;;6.53;69.21
28027;BME280;15344;52.342;-1.290;2022-12-11T08:29:29;99421.87;;;6.94;69.23
28027;BME280;15344;52.342;-1.290;2022-12-11T08:31:54;99424.64;;;6.93;67.26
28027;BME280;15344;52.342;-1.290;2022-12-11T08:34:20;99425.89;;;6.57;68.07
28027;BME280;15344;52.342;-1.290;2022-12-11T08:36:45;99428.32;;;6.92;67.15
28027;BME280;15344;52.342;-1.290;2022-12-11T08:39:10;99426.85;;;6.45;68.93
28027;BME280;15344;52.342;-1.290;2022-12-11T08:41:35;99425.20;;;6.25;69.80
28027;BME280;15344;52.342;-1.290;2022-12-11T08:44:01;99423.83;;;6.71;69.38
28027;BME280;15344;52.342;-1.290;2022-12-11T08:46:29;99419.69;;;6.07;71.75
28027;BME280;15344;52.342;-1.290;2022-12-11T08:48:53;99424.13;;;4.30;77.09
28027;BME280;15344;52.342;-1.290;2022-12-11T08:51:20;99416.55;;;5.65;75.87
28027;BME280;15344;52.342;-1.290;2022-12-11T08:53:43;99419.19;;;6.23;72.70
28027;BME280;15344;52.342;-1.290;2022-12-11T08:56:11;99419.63;;;5.88;73.12
28027;BME280;15344;52.342;-1.290;2022-12-11T08:58:35;99421.58;;;5.31;73.61
28027;BME280;15344;52.342;-1.290;2022-12-11T09:01:04;99423.08;;;6.18;72.40
28027;BME280;15344;52.342;-1.290;2022-12-11T09:03:25;99424.96;;;6.82;70.05
28027;BME280;15344;52.342;-1.290;2022-12-11T09:05:51;99425.03;;;6.76;68.70
28027;BME280;15344;52.342;-1.290;2022-12-11T09:08:16;99424.00;;;6.95;66.00
28027;BME280;15344;52.342;-1.290;2022-12-11T09:10:42;99427.38;;;7.00;66.73
28027;BME280;15344;52.342;-1.290;2022-12-11T09:13:07;99429.60;;;6.23;67.06
28027;BME280;15344;52.342;-1.290;2022-12-11T09:15:33;99429.78;;;6.28;67.85
28027;BME280;15344;52.342;-1.290;2022-12-11T09:17:59;99428.65;;;5.34;72.14
28027;BME280;15344;52.342;-1.290;2022-12-11T09:20:24;99433.58;;;5.24;73.29
28027;BME280;15344;52.342;-1.290;2022-12-11T09:22:49;99429.74;;;6.26;71.84
28027;BME280;15344;52.342;-1.290;2022-12-11T09:25:15;99431.16;;;5.15;74.98
28027;BME280;15344;52.342;-1.290;2022-12-11T09:27:40;99438.18;;;4.43;79.69
28027;BME280;15344;52.342;-1.290;2022-12-11T09:30:07;99436.98;;;4.62;78.98
28027;BME280;15344;52.342;-1.290;2022-12-11T09:32:31;99437.03;;;4.58;77.84
28027;BME280;15344;52.342;-1.290;2022-12-11T09:34:56;99431.10;;;5.70;75.79
28027;BME280;15344;52.342;-1.290;2022-12-11T09:37:21;99428.87;;;5.45;74.51
28027;BME280;15344;52.342;-1.290;2022-12-11T09:39:47;99431.42;;;5.57;72.98
28027;BME280;15344;52.342;-1.290;2022-12-11T09:42:17;99434.20;;;6.50;72.13
28027;BME280;15344;52.342;-1.290;2022-12-11T09:44:41;99432.76;;;5.91;72.82
28027;BME280;15344;52.342;-1.290;2022-12-11T09:47:14;99432.32;;;6.03;71.52
28027;BME280;15344;52.342;-1.290;2022-12-11T09:49:36;99431.21;;;6.33;71.81
28027;BME280;15344;52.342;-1.290;2022-12-11T09:52:04;99430.38;;;6.02;71.70
28027;BME280;15344;52.342;-1.290;2022-12-11T09:54:20;99429.86;;;6.26;71.60
28027;BME280;15344;52.342;-1.290;2022-12-11T09:56:50;99430.80;;;5.77;74.28
28027;BME280;15344;52.342;-1.290;2022-12-11T09:59:18;99428.91;;;6.24;72.44
28027;BME280;15344;52.342;-1.290;2022-12-11T10:01:43;99431.74;;;5.60;73.27
28027;BME280;15344;52.342;-1.290;2022-12-11T10:04:13;99433.46;;;5.70;72.97
28027;BME280;15344;52.342;-1.290;2022-12-11T10:06:30;99432.03;;;5.63;72.28
28027;BME280;15344;52.342;-1.290;2022-12-11T10:09:00;99430.68;;;6.16;70.05
28027;BME280;15344;52.342;-1.290;2022-12-11T10:11:26;99427.95;;;6.46;69.47
28027;BME280;15344;52.342;-1.290;2022-12-11T10:13:48;99426.17;;;6.78;67.81
28027;BME280;15344;52.342;-1.290;2022-12-11T10:16:13;99428.77;;;6.27;69.02
28027;BME280;15344;52.342;-1.290;2022-12-11T10:18:33;99430.95;;;6.05;69.79
28027;BME280;15344;52.342;-1.290;2022-12-11T10:21:01;99433.60;;;6.03;72.30
28027;BME280;15344;52.342;-1.290;2022-12-11T10:23:28;99439.43;;;4.66;77.89
28027;BME280;15344;52.342;-1.290;2022-12-11T10:25:55;99432.56;;;6.31;71.82
28027;BME280;15344;52.342;-1.290;2022-12-11T10:28:17;99436.82;;;4.17;78.82
28027;BME280;15344;52.342;-1.290;2022-12-11T10:30:48;99430.77;;;5.81;73.84
28027;BME280;15344;52.342;-1.290;2022-12-11T10:33:13;99429.89;;;6.35;73.26
28027;BME280;15344;52.342;-1.290;2022-12-11T10:35:35;99432.00;;;5.05;78.60
28027;BME280;15344;52.342;-1.290;2022-12-11T10:40:24;99431.29;;;4.75;82.65
28027;BME280;15344;52.342;-1.290;2022-12-11T10:42:53;99431.24;;;4.19;82.46
28027;BME280;15344;52.342;-1.290;2022-12-11T10:45:15;99426.64;;;5.51;80.34
28027;BME280;15344;52.342;-1.290;2022-12-11T10:47:39;99429.93;;;5.13;80.85
28027;BME280;15344;52.342;-1.290;2022-12-11T10:50:05;99423.96;;;5.41;78.88
28027;BME280;15344;52.342;-1.290;2022-12-11T10:52:32;99425.71;;;5.70;77.07
28027;BME280;15344;52.342;-1.290;2022-12-11T10:55:00;99426.18;;;5.21;80.04
28027;BME280;15344;52.342;-1.290;2022-12-11T10:57:27;99433.06;;;4.61;81.65
28027;BME280;15344;52.342;-1.290;2022-12-11T10:59:48;99433.39;;;3.75;86.54
28027;BME280;15344;52.342;-1.290;2022-12-11T11:02:20;99424.26;;;5.76;77.87
28027;BME280;15344;52.342;-1.290;2022-12-11T11:04:40;99423.70;;;5.07;79.46
28027;BME280;15344;52.342;-1.290;2022-12-11T11:07:09;99420.39;;;5.65;78.75
28027;BME280;15344;52.342;-1.290;2022-12-11T11:09:30;99421.70;;;5.01;82.05
28027;BME280;15344;52.342;-1.290;2022-12-11T11:11:53;99415.67;;;6.54;74.04
28027;BME280;15344;52.342;-1.290;2022-12-11T11:14:20;99413.83;;;6.57;73.32
28027;BME280;15344;52.342;-1.290;2022-12-11T11:16:46;99412.93;;;6.65;74.39
28027;BME280;15344;52.342;-1.290;2022-12-11T11:19:17;99411.04;;;6.43;73.26
28027;BME280;15344;52.342;-1.290;2022-12-11T11:21:45;99409.64;;;5.57;76.11
28027;BME280;15344;52.342;-1.290;2022-12-11T11:24:02;99409.30;;;6.71;73.86
28027;BME280;15344;52.342;-1.290;2022-12-11T11:26:31;99408.45;;;6.23;75.75
28027;BME280;15344;52.342;-1.290;2022-12-11T11:28:54;99408.90;;;6.66;73.63
28027;BME280;15344;52.342;-1.290;2022-12-11T11:31:20;99407.47;;;7.05;72.54
28027;BME280;15344;52.342;-1.290;2022-12-11T11:33:52;99407.90;;;6.33;73.69
28027;BME280;15344;52.342;-1.290;2022-12-11T11:36:18;99407.44;;;5.40;78.51
28027;BME280;15344;52.342;-1.290;2022-12-11T11:38:37;99406.67;;;5.55;79.04
28027;BME280;15344;52.342;-1.290;2022-12-11T11:41:11;99406.45;;;5.57;80.62
28027;BME280;15344;52.342;-1.290;2022-12-11T11:43:34;99401.99;;;5.21;81.50
28027;BME280;15344;52.342;-1.290;2022-12-11T11:45:56;99404.44;;;4.61;84.39
28027;BME280;15344;52.342;-1.290;2022-12-11T11:48:27;99403.44;;;4.79;84.42
28027;BME280;15344;52.342;-1.290;2022-12-11T11:50:45;99399.28;;;5.51;81.68
28027;BME280;15344;52.342;-1.290;2022-12-11T11:53:12;99400.45;;;5.01;82.65
28027;BME280;15344;52.342;-1.290;2022-12-11T11:55:40;99404.20;;;4.57;83.54
28027;BME280;15344;52.342;-1.290;2022-12-11T11:58:03;99398.73;;;5.88;79.23
28027;BME280;15344;52.342;-1.290;2022-12-11T12:00:27;99396.98;;;5.36;81.12
28027;BME280;15344;52.342;-1.290;2022-12-11T12:02:53;99394.35;;;4.73;84.84
28027;BME280;15344;52.342;-1.290;2022-12-11T12:05:22;99392.17;;;5.86;80.69
28027;BME280;15344;52.342;-1.290;2022-12-11T12:07:46;99391.53;;;5.56;82.42
28027;BME280;15344;52.342;-1.290;2022-12-11T12:10:13;99396.72;;;3.96;89.52
28027;BME280;15344;52.342;-1.290;2022-12-11T12:12:38;99387.59;;;4.76;86.11
28027;BME280;15344;52.342;-1.290;2022-12-11T12:15:07;99386.04;;;5.23;87.17
28027;BME280;15344;52.342;-1.290;2022-12-11T12:17:28;99383.71;;;4.93;86.51
28027;BME280;15344;52.342;-1.290;2022-12-11T12:19:58;99387.06;;;5.18;85.40
28027;BME280;15344;52.342;-1.290;2022-12-11T12:22:25;99387.56;;;5.54;82.43
28027;BME280;15344;52.342;-1.290;2022-12-11T12:24:42;99389.29;;;6.72;79.39
28027;BME280;15344;52.342;-1.290;2022-12-11T12:27:12;99388.28;;;6.76;78.73
28027;BME280;15344;52.342;-1.290;2022-12-11T12:29:40;99386.15;;;5.89;81.58
28027;BME280;15344;52.342;-1.290;2022-12-11T12:32:04;99383.34;;;6.18;80.59
28027;BME280;15344;52.342;-1.290;2022-12-11T12:34:31;99382.59;;;5.56;83.25
28027;BME280;15344;52.342;-1.290;2022-12-11T12:36:51;99383.77;;;5.81;81.23
28027;BME280;15344;52.342;-1.290;2022-12-11T12:39:20;99385.11;;;5.34;85.79
28027;BME280;15344;52.342;-1.290;2022-12-11T12:41:42;99387.11;;;5.54;81.41
28027;BME280;15344;52.342;-1.290;2022-12-11T12:44:12;99384.03;;;5.16;85.98
28027;BME280;15344;52.342;-1.290;2022-12-11T12:46:39;99382.20;;;5.52;82.87
28027;BME280;15344;52.342;-1.290;2022-12-11T12:48:55;99381.75;;;5.22;84.61
28027;BME280;15344;52.342;-1.290;2022-12-11T12:51:20;99378.16;;;4.24;87.68
28027;BME280;15344;52.342;-1.290;2022-12-11T12:53:51;99374.55;;;6.12;80.49